sensor_id;sensor_type;location;lat;lon;timestamp;P1;durP1;ratioP1;P2;durP2;ratioP2
19221;SDS011;9745;50.828;4.378;2023-02-28T00:00:21;6.40;;;4.03;;
19221;SDS011;9745;50.828;4.378;2023-02-28T00:02:47;7.53;;;4.90;;
19221;SDS011;9745;50.828;4.378;2023-02-28T00:05:14;9.23;;;4.50;;
19221;SDS011;9745;50.828;4.378;2023-02-28T00:07:40;6.53;;;4.83;;
19221;SDS011;9745;50.828;4.378;2023-02-28T00:10:07;11.00;;;5.17;;
19221;SDS011;9745;50.828;4.378;2023-02-28T00:12:34;9.20;;;4.53;;
19221;SDS011;9745;50.828;4.378;2023-02-28T00:15:01;6.20;;;4.23;;
19221;SDS011;9745;50.828;4.378;2023-02-28T00:17:27;7.80;;;4.40;;
19221;SDS011;9745;50.828;4.378;2023-02-28T00:19:53;10.37;;;4.40;;
19221;SDS011;9745;50.828;4.378;2023-02-28T00:22:19;6.47;;;4.57;;
19221;SDS011;9745;50.828;4.378;2023-02-28T00:24:45;9.10;;;4.40;;
19221;SDS011;9745;50.828;4.378;2023-02-28T00:27:12;8.40;;;4.37;;
19221;SDS011;9745;50.828;4.378;2023-02-28T00:29:38;11.00;;;5.10;;
19221;SDS011;9745;50.828;4.378;2023-02-28T00:32:04;11.83;;;4.47;;
19221;SDS011;9745;50.828;4.378;2023-02-28T00:34:30;10.67;;;4.60;;
19221;SDS011;9745;50.828;4.378;2023-02-28T00:36:57;6.77;;;4.00;;
19221;SDS011;9745;50.828;4.378;2023-02-28T00:39:23;12.87;;;4.30;;
19221;SDS011;9745;50.828;4.378;2023-02-28T00:41:49;5.73;;;4.10;;
19221;SDS011;9745;50.828;4.378;2023-02-28T00:44:15;9.97;;;4.80;;
19221;SDS011;9745;50.828;4.378;2023-02-28T00:46:41;6.53;;;4.50;;
19221;SDS011;9745;50.828;4.378;2023-02-28T00:49:07;9.73;;;4.53;;
19221;SDS011;9745;50.828;4.378;2023-02-28T00:51:33;6.23;;;4.63;;
19221;SDS011;9745;50.828;4.378;2023-02-28T00:53:59;8.83;;;4.10;;
19221;SDS011;9745;50.828;4.378;2023-02-28T00:56:25;10.30;;;4.50;;
19221;SDS011;9745;50.828;4.378;2023-02-28T00:58:51;8.70;;;4.30;;
19221;SDS011;9745;50.828;4.378;2023-02-28T01:01:17;7.17;;;4.43;;
19221;SDS011;9745;50.828;4.378;2023-02-28T01:03:43;10.93;;;4.57;;
19221;SDS011;9745;50.828;4.378;2023-02-28T01:06:09;6.80;;;4.60;;
19221;SDS011;9745;50.828;4.378;2023-02-28T01:08:35;10.07;;;5.20;;
19221;SDS011;9745;50.828;4.378;2023-02-28T01:11:08;7.73;;;4.73;;
19221;SDS011;9745;50.828;4.378;2023-02-28T01:13:34;10.70;;;5.17;;
19221;SDS011;9745;50.828;4.378;2023-02-28T01:16:01;7.10;;;4.60;;
19221;SDS011;9745;50.828;4.378;2023-02-28T01:18:26;12.67;;;5.27;;
19221;SDS011;9745;50.828;4.378;2023-02-28T01:20:53;10.17;;;4.83;;
19221;SDS011;9745;50.828;4.378;2023-02-28T01:23:20;8.80;;;5.00;;
19221;SDS011;9745;50.828;4.378;2023-02-28T01:25:48;7.97;;;5.13;;
19221;SDS011;9745;50.828;4.378;2023-02-28T01:28:14;10.17;;;5.27;;
19221;SDS011;9745;50.828;4.378;2023-02-28T01:30:40;6.80;;;4.80;;
19221;SDS011;9745;50.828;4.378;2023-02-28T01:33:06;9.63;;;4.83;;
19221;SDS011;9745;50.828;4.378;2023-02-28T01:35:32;7.37;;;4.97;;
19221;SDS011;9745;50.828;4.378;2023-02-28T01:37:59;9.70;;;5.30;;
19221;SDS011;9745;50.828;4.378;2023-02-28T01:40:25;11.13;;;5.00;;
19221;SDS011;9745;50.828;4.378;2023-02-28T01:42:51;10.20;;;5.20;;
19221;SDS011;9745;50.828;4.378;2023-02-28T01:45:29;9.07;;;4.97;;
19221;SDS011;9745;50.828;4.378;2023-02-28T01:47:58;7.60;;;4.63;;
19221;SDS011;9745;50.828;4.378;2023-02-28T01:50:26;7.77;;;4.70;;
19221;SDS011;9745;50.828;4.378;2023-02-28T01:52:54;9.63;;;4.90;;
19221;SDS011;9745;50.828;4.378;2023-02-28T01:55:22;9.00;;;5.30;;
19221;SDS011;9745;50.828;4.378;2023-02-28T01:57:50;9.67;;;5.47;;
19221;SDS011;9745;50.828;4.378;2023-02-28T02:00:18;10.47;;;4.93;;
19221;SDS011;9745;50.828;4.378;2023-02-28T02:02:46;8.97;;;5.23;;
19221;SDS011;9745;50.828;4.378;2023-02-28T02:05:16;8.63;;;5.07;;
19221;SDS011;9745;50.828;4.378;2023-02-28T02:07:43;9.30;;;5.63;;
19221;SDS011;9745;50.828;4.378;2023-02-28T02:15:24;8.77;;;5.40;;
19221;SDS011;9745;50.828;4.378;2023-02-28T02:17:52;11.40;;;5.70;;
19221;SDS011;9745;50.828;4.378;2023-02-28T02:20:32;8.27;;;5.33;;
19221;SDS011;9745;50.828;4.378;2023-02-28T02:23:23;8.93;;;5.33;;
19221;SDS011;9745;50.828;4.378;2023-02-28T02:25:54;7.70;;;4.97;;
19221;SDS011;9745;50.828;4.378;2023-02-28T02:33:38;9.07;;;5.60;;
19221;SDS011;9745;50.828;4.378;2023-02-28T02:36:17;8.23;;;5.67;;
19221;SDS011;9745;50.828;4.378;2023-02-28T02:38:49;10.47;;;5.90;;
19221;SDS011;9745;50.828;4.378;2023-02-28T02:41:18;10.47;;;5.80;;
19221;SDS011;9745;50.828;4.378;2023-02-28T02:43:49;10.57;;;6.00;;
19221;SDS011;9745;50.828;4.378;2023-02-28T02:49:00;12.27;;;6.07;;
19221;SDS011;9745;50.828;4.378;2023-02-28T02:51:29;12.10;;;5.83;;
19221;SDS011;9745;50.828;4.378;2023-02-28T02:54:08;13.73;;;6.77;;
19221;SDS011;9745;50.828;4.378;2023-02-28T02:56:34;13.90;;;6.27;;
19221;SDS011;9745;50.828;4.378;2023-02-28T02:59:02;9.10;;;6.00;;
19221;SDS011;9745;50.828;4.378;2023-02-28T03:01:30;11.07;;;7.03;;
19221;SDS011;9745;50.828;4.378;2023-02-28T03:03:57;12.10;;;6.00;;
19221;SDS011;9745;50.828;4.378;2023-02-28T03:06:24;11.03;;;6.60;;
19221;SDS011;9745;50.828;4.378;2023-02-28T03:08:50;8.07;;;6.43;;
19221;SDS011;9745;50.828;4.378;2023-02-28T03:11:16;12.53;;;7.07;;
19221;SDS011;9745;50.828;4.378;2023-02-28T03:19:18;10.97;;;6.00;;
19221;SDS011;9745;50.828;4.378;2023-02-28T03:22:03;12.33;;;6.70;;
19221;SDS011;9745;50.828;4.378;2023-02-28T03:30:02;10.73;;;7.43;;
19221;SDS011;9745;50.828;4.378;2023-02-28T03:32:31;14.30;;;7.03;;
19221;SDS011;9745;50.828;4.378;2023-02-28T03:34:59;16.03;;;7.47;;
19221;SDS011;9745;50.828;4.378;2023-02-28T03:37:28;12.37;;;6.80;;
19221;SDS011;9745;50.828;4.378;2023-02-28T03:39:59;11.10;;;7.43;;
19221;SDS011;9745;50.828;4.378;2023-02-28T03:42:27;11.80;;;7.07;;
19221;SDS011;9745;50.828;4.378;2023-02-28T03:44:55;11.87;;;7.60;;
19221;SDS011;9745;50.828;4.378;2023-02-28T03:47:24;12.60;;;7.47;;
19221;SDS011;9745;50.828;4.378;2023-02-28T03:49:53;13.13;;;6.83;;
19221;SDS011;9745;50.828;4.378;2023-02-28T03:52:20;10.60;;;6.80;;
19221;SDS011;9745;50.828;4.378;2023-02-28T03:54:48;9.80;;;6.63;;
19221;SDS011;9745;50.828;4.378;2023-02-28T03:59:59;11.87;;;7.67;;
19221;SDS011;9745;50.828;4.378;2023-02-28T04:02:25;12.60;;;7.50;;
19221;SDS011;9745;50.828;4.378;2023-02-28T04:04:51;13.73;;;7.23;;
19221;SDS011;9745;50.828;4.378;2023-02-28T04:07:18;15.03;;;8.13;;
19221;SDS011;9745;50.828;4.378;2023-02-28T04:09:44;11.60;;;8.50;;
19221;SDS011;9745;50.828;4.378;2023-02-28T04:12:10;13.67;;;7.97;;
19221;SDS011;9745;50.828;4.378;2023-02-28T04:14:36;13.00;;;7.93;;
19221;SDS011;9745;50.828;4.378;2023-02-28T04:17:02;15.43;;;8.67;;
19221;SDS011;9745;50.828;4.378;2023-02-28T04:19:28;13.73;;;7.33;;
19221;SDS011;9745;50.828;4.378;2023-02-28T04:21:54;10.33;;;7.43;;
19221;SDS011;9745;50.828;4.378;2023-02-28T04:24:21;12.50;;;8.07;;
19221;SDS011;9745;50.828;4.378;2023-02-28T04:26:49;12.50;;;8.07;;
19221;SDS011;9745;50.828;4.378;2023-02-28T04:29:19;16.50;;;8.40;;
19221;SDS011;9745;50.828;4.378;2023-02-28T04:31:45;14.17;;;8.33;;
19221;SDS011;9745;50.828;4.378;2023-02-28T04:34:11;16.27;;;7.87;;
19221;SDS011;9745;50.828;4.378;2023-02-28T04:36:37;14.87;;;7.83;;
19221;SDS011;9745;50.828;4.378;2023-02-28T04:39:03;15.13;;;8.17;;
19221;SDS011;9745;50.828;4.378;2023-02-28T04:41:29;12.13;;;8.37;;
19221;SDS011;9745;50.828;4.378;2023-02-28T04:43:55;10.27;;;7.83;;
19221;SDS011;9745;50.828;4.378;2023-02-28T04:46:21;12.90;;;7.50;;
19221;SDS011;9745;50.828;4.378;2023-02-28T04:48:48;14.90;;;8.67;;
19221;SDS011;9745;50.828;4.378;2023-02-28T04:51:14;11.07;;;8.27;;
19221;SDS011;9745;50.828;4.378;2023-02-28T04:53:41;17.90;;;10.00;;
19221;SDS011;9745;50.828;4.378;2023-02-28T04:56:07;10.50;;;7.73;;
19221;SDS011;9745;50.828;4.378;2023-02-28T04:58:34;22.07;;;8.47;;
19221;SDS011;9745;50.828;4.378;2023-02-28T05:01:04;16.90;;;8.60;;
19221;SDS011;9745;50.828;4.378;2023-02-28T05:03:37;15.13;;;8.87;;
19221;SDS011;9745;50.828;4.378;2023-02-28T05:06:03;15.03;;;8.60;;
19221;SDS011;9745;50.828;4.378;2023-02-28T05:08:29;12.30;;;7.27;;
19221;SDS011;9745;50.828;4.378;2023-02-28T05:10:55;15.60;;;8.60;;
19221;SDS011;9745;50.828;4.378;2023-02-28T05:13:21;14.10;;;8.67;;
19221;SDS011;9745;50.828;4.378;2023-02-28T05:15:47;14.13;;;8.70;;
19221;SDS011;9745;50.828;4.378;2023-02-28T05:18:13;14.53;;;8.67;;
19221;SDS011;9745;50.828;4.378;2023-02-28T05:20:40;12.27;;;8.13;;
19221;SDS011;9745;50.828;4.378;2023-02-28T05:23:05;12.57;;;7.80;;
19221;SDS011;9745;50.828;4.378;2023-02-28T05:25:32;15.77;;;8.07;;
19221;SDS011;9745;50.828;4.378;2023-02-28T05:27:58;16.50;;;9.00;;
19221;SDS011;9745;50.828;4.378;2023-02-28T05:30:24;14.93;;;8.57;;
19221;SDS011;9745;50.828;4.378;2023-02-28T05:32:50;12.77;;;7.87;;
19221;SDS011;9745;50.828;4.378;2023-02-28T05:35:17;15.13;;;8.40;;
19221;SDS011;9745;50.828;4.378;2023-02-28T05:37:43;18.00;;;8.10;;
19221;SDS011;9745;50.828;4.378;2023-02-28T05:40:09;12.70;;;7.77;;
19221;SDS011;9745;50.828;4.378;2023-02-28T05:42:35;10.80;;;7.47;;
19221;SDS011;9745;50.828;4.378;2023-02-28T05:45:02;13.33;;;8.10;;
19221;SDS011;9745;50.828;4.378;2023-02-28T05:47:28;15.03;;;8.20;;
19221;SDS011;9745;50.828;4.378;2023-02-28T05:49:54;17.20;;;8.13;;
19221;SDS011;9745;50.828;4.378;2023-02-28T05:52:20;16.67;;;8.43;;
19221;SDS011;9745;50.828;4.378;2023-02-28T05:54:46;14.13;;;8.30;;
19221;SDS011;9745;50.828;4.378;2023-02-28T05:57:12;14.33;;;7.93;;
19221;SDS011;9745;50.828;4.378;2023-02-28T05:59:38;11.43;;;7.37;;
19221;SDS011;9745;50.828;4.378;2023-02-28T06:02:05;16.00;;;7.63;;
19221;SDS011;9745;50.828;4.378;2023-02-28T06:04:31;10.70;;;7.67;;
19221;SDS011;9745;50.828;4.378;2023-02-28T06:06:57;11.37;;;7.90;;
19221;SDS011;9745;50.828;4.378;2023-02-28T06:09:23;9.10;;;7.00;;
19221;SDS011;9745;50.828;4.378;2023-02-28T06:11:49;12.77;;;7.87;;
19221;SDS011;9745;50.828;4.378;2023-02-28T06:14:16;13.23;;;7.67;;
19221;SDS011;9745;50.828;4.378;2023-02-28T06:16:42;13.77;;;7.30;;
19221;SDS011;9745;50.828;4.378;2023-02-28T06:19:09;11.57;;;7.97;;
19221;SDS011;9745;50.828;4.378;2023-02-28T06:21:36;13.57;;;7.50;;
19221;SDS011;9745;50.828;4.378;2023-02-28T06:24:02;15.70;;;8.17;;
19221;SDS011;9745;50.828;4.378;2023-02-28T06:26:29;13.53;;;6.80;;
19221;SDS011;9745;50.828;4.378;2023-02-28T06:28:55;12.30;;;7.57;;
19221;SDS011;9745;50.828;4.378;2023-02-28T06:31:22;14.03;;;7.53;;
19221;SDS011;9745;50.828;4.378;2023-02-28T06:33:49;12.60;;;7.17;;
19221;SDS011;9745;50.828;4.378;2023-02-28T06:36:15;11.10;;;7.53;;
19221;SDS011;9745;50.828;4.378;2023-02-28T06:38:41;14.70;;;7.57;;
19221;SDS011;9745;50.828;4.378;2023-02-28T06:41:08;14.07;;;8.03;;
19221;SDS011;9745;50.828;4.378;2023-02-28T06:43:35;15.13;;;7.23;;
19221;SDS011;9745;50.828;4.378;2023-02-28T06:46:03;12.90;;;7.20;;
19221;SDS011;9745;50.828;4.378;2023-02-28T06:48:29;14.03;;;6.97;;
19221;SDS011;9745;50.828;4.378;2023-02-28T06:51:08;12.87;;;7.50;;
19221;SDS011;9745;50.828;4.378;2023-02-28T06:53:35;13.40;;;7.23;;
19221;SDS011;9745;50.828;4.378;2023-02-28T06:56:04;12.83;;;7.33;;
19221;SDS011;9745;50.828;4.378;2023-02-28T06:58:31;11.63;;;6.83;;
19221;SDS011;9745;50.828;4.378;2023-02-28T07:00:57;10.17;;;7.23;;
19221;SDS011;9745;50.828;4.378;2023-02-28T07:03:23;9.77;;;6.77;;
19221;SDS011;9745;50.828;4.378;2023-02-28T07:05:49;13.03;;;7.87;;
19221;SDS011;9745;50.828;4.378;2023-02-28T07:08:15;11.97;;;7.23;;
19221;SDS011;9745;50.828;4.378;2023-02-28T07:10:41;11.63;;;7.50;;
19221;SDS011;9745;50.828;4.378;2023-02-28T07:13:08;10.67;;;7.20;;
19221;SDS011;9745;50.828;4.378;2023-02-28T07:15:34;10.27;;;6.80;;
19221;SDS011;9745;50.828;4.378;2023-02-28T07:18:00;13.40;;;8.13;;
19221;SDS011;9745;50.828;4.378;2023-02-28T07:20:26;13.70;;;7.60;;
19221;SDS011;9745;50.828;4.378;2023-02-28T07:22:52;16.27;;;8.10;;
19221;SDS011;9745;50.828;4.378;2023-02-28T07:25:22;13.83;;;6.97;;
19221;SDS011;9745;50.828;4.378;2023-02-28T07:27:48;10.73;;;7.30;;
19221;SDS011;9745;50.828;4.378;2023-02-28T07:30:14;15.07;;;6.70;;
19221;SDS011;9745;50.828;4.378;2023-02-28T07:32:40;12.57;;;7.30;;
19221;SDS011;9745;50.828;4.378;2023-02-28T07:35:06;10.80;;;6.63;;
19221;SDS011;9745;50.828;4.378;2023-02-28T07:37:32;10.53;;;6.27;;
19221;SDS011;9745;50.828;4.378;2023-02-28T07:40:02;10.40;;;6.93;;
19221;SDS011;9745;50.828;4.378;2023-02-28T07:42:31;12.47;;;6.33;;
19221;SDS011;9745;50.828;4.378;2023-02-28T07:44:57;13.87;;;6.47;;
19221;SDS011;9745;50.828;4.378;2023-02-28T07:47:23;11.40;;;6.77;;
19221;SDS011;9745;50.828;4.378;2023-02-28T07:49:49;10.03;;;6.20;;
19221;SDS011;9745;50.828;4.378;2023-02-28T07:52:16;9.87;;;6.30;;
19221;SDS011;9745;50.828;4.378;2023-02-28T07:54:42;10.63;;;6.50;;
19221;SDS011;9745;50.828;4.378;2023-02-28T07:57:08;13.77;;;5.50;;
19221;SDS011;9745;50.828;4.378;2023-02-28T07:59:34;8.40;;;5.20;;
19221;SDS011;9745;50.828;4.378;2023-02-28T08:02:00;14.50;;;5.47;;
19221;SDS011;9745;50.828;4.378;2023-02-28T08:04:26;9.37;;;5.43;;
19221;SDS011;9745;50.828;4.378;2023-02-28T08:06:52;7.03;;;4.93;;
19221;SDS011;9745;50.828;4.378;2023-02-28T08:09:18;6.93;;;3.93;;
19221;SDS011;9745;50.828;4.378;2023-02-28T08:11:44;10.90;;;5.43;;
19221;SDS011;9745;50.828;4.378;2023-02-28T08:14:10;6.80;;;4.80;;
19221;SDS011;9745;50.828;4.378;2023-02-28T08:16:36;7.77;;;5.07;;
19221;SDS011;9745;50.828;4.378;2023-02-28T08:19:03;6.40;;;4.37;;
19221;SDS011;9745;50.828;4.378;2023-02-28T08:21:29;7.43;;;4.77;;
19221;SDS011;9745;50.828;4.378;2023-02-28T08:23:55;8.70;;;4.30;;
19221;SDS011;9745;50.828;4.378;2023-02-28T08:26:22;8.83;;;4.70;;
19221;SDS011;9745;50.828;4.378;2023-02-28T08:28:48;12.43;;;4.90;;
19221;SDS011;9745;50.828;4.378;2023-02-28T08:31:15;8.37;;;4.67;;
19221;SDS011;9745;50.828;4.378;2023-02-28T08:33:41;14.13;;;4.87;;
19221;SDS011;9745;50.828;4.378;2023-02-28T08:36:09;7.93;;;3.70;;
19221;SDS011;9745;50.828;4.378;2023-02-28T08:38:35;6.33;;;3.80;;
19221;SDS011;9745;50.828;4.378;2023-02-28T08:41:03;5.67;;;3.97;;
19221;SDS011;9745;50.828;4.378;2023-02-28T08:43:32;7.03;;;4.00;;
19221;SDS011;9745;50.828;4.378;2023-02-28T08:45:58;5.57;;;4.00;;
19221;SDS011;9745;50.828;4.378;2023-02-28T08:48:27;5.77;;;3.90;;
19221;SDS011;9745;50.828;4.378;2023-02-28T08:51:00;7.87;;;4.53;;
19221;SDS011;9745;50.828;4.378;2023-02-28T08:53:26;6.30;;;3.73;;
19221;SDS011;9745;50.828;4.378;2023-02-28T08:56:06;6.83;;;3.90;;
19221;SDS011;9745;50.828;4.378;2023-02-28T08:58:32;11.27;;;4.30;;
19221;SDS011;9745;50.828;4.378;2023-02-28T09:00:59;8.63;;;3.70;;
19221;SDS011;9745;50.828;4.378;2023-02-28T09:03:25;5.50;;;4.10;;
19221;SDS011;9745;50.828;4.378;2023-02-28T09:08:20;5.73;;;3.60;;
19221;SDS011;9745;50.828;4.378;2023-02-28T09:10:46;5.90;;;4.17;;
19221;SDS011;9745;50.828;4.378;2023-02-28T09:13:12;7.07;;;3.80;;
19221;SDS011;9745;50.828;4.378;2023-02-28T09:15:38;10.63;;;3.73;;
19221;SDS011;9745;50.828;4.378;2023-02-28T09:18:04;8.17;;;4.20;;
19221;SDS011;9745;50.828;4.378;2023-02-28T09:20:30;10.13;;;4.50;;
19221;SDS011;9745;50.828;4.378;2023-02-28T09:22:56;12.40;;;4.47;;
19221;SDS011;9745;50.828;4.378;2023-02-28T09:25:22;9.30;;;3.00;;
19221;SDS011;9745;50.828;4.378;2023-02-28T09:27:48;4.83;;;3.33;;
19221;SDS011;9745;50.828;4.378;2023-02-28T09:30:14;4.67;;;3.60;;
19221;SDS011;9745;50.828;4.378;2023-02-28T09:32:41;7.17;;;3.03;;
19221;SDS011;9745;50.828;4.378;2023-02-28T09:35:07;5.10;;;3.33;;
19221;SDS011;9745;50.828;4.378;2023-02-28T09:37:38;13.70;;;3.40;;
19221;SDS011;9745;50.828;4.378;2023-02-28T09:40:05;14.43;;;4.03;;
19221;SDS011;9745;50.828;4.378;2023-02-28T09:42:32;4.80;;;3.20;;
19221;SDS011;9745;50.828;4.378;2023-02-28T09:45:00;7.37;;;3.73;;
19221;SDS011;9745;50.828;4.378;2023-02-28T09:47:31;5.70;;;2.63;;
19221;SDS011;9745;50.828;4.378;2023-02-28T09:49:59;5.40;;;2.73;;
19221;SDS011;9745;50.828;4.378;2023-02-28T09:52:28;9.07;;;2.83;;
19221;SDS011;9745;50.828;4.378;2023-02-28T09:54:55;4.97;;;2.90;;
19221;SDS011;9745;50.828;4.378;2023-02-28T09:57:27;3.83;;;2.30;;
19221;SDS011;9745;50.828;4.378;2023-02-28T10:00:07;3.90;;;2.50;;
19221;SDS011;9745;50.828;4.378;2023-02-28T10:02:41;5.53;;;3.30;;
19221;SDS011;9745;50.828;4.378;2023-02-28T10:05:13;4.37;;;2.67;;
19221;SDS011;9745;50.828;4.378;2023-02-28T10:10:29;8.90;;;3.07;;
19221;SDS011;9745;50.828;4.378;2023-02-28T10:12:56;5.23;;;2.73;;
19221;SDS011;9745;50.828;4.378;2023-02-28T10:15:24;9.10;;;2.63;;
19221;SDS011;9745;50.828;4.378;2023-02-28T10:17:53;5.50;;;2.70;;
19221;SDS011;9745;50.828;4.378;2023-02-28T10:20:20;3.60;;;2.57;;
19221;SDS011;9745;50.828;4.378;2023-02-28T10:22:57;5.20;;;2.40;;
19221;SDS011;9745;50.828;4.378;2023-02-28T10:25:25;6.87;;;2.30;;
19221;SDS011;9745;50.828;4.378;2023-02-28T10:27:53;4.43;;;2.50;;
19221;SDS011;9745;50.828;4.378;2023-02-28T10:30:19;4.80;;;2.30;;
19221;SDS011;9745;50.828;4.378;2023-02-28T10:32:49;2.80;;;1.93;;
19221;SDS011;9745;50.828;4.378;2023-02-28T10:35:19;2.27;;;1.83;;
19221;SDS011;9745;50.828;4.378;2023-02-28T10:37:49;4.63;;;2.37;;
19221;SDS011;9745;50.828;4.378;2023-02-28T10:42:58;2.33;;;1.77;;
19221;SDS011;9745;50.828;4.378;2023-02-28T10:45:24;7.83;;;2.10;;
19221;SDS011;9745;50.828;4.378;2023-02-28T10:50:26;3.00;;;1.80;;
19221;SDS011;9745;50.828;4.378;2023-02-28T10:52:53;3.40;;;1.83;;
19221;SDS011;9745;50.828;4.378;2023-02-28T10:55:23;2.57;;;1.73;;
19221;SDS011;9745;50.828;4.378;2023-02-28T10:57:50;2.10;;;1.60;;
19221;SDS011;9745;50.828;4.378;2023-02-28T11:00:20;2.53;;;1.87;;
19221;SDS011;9745;50.828;4.378;2023-02-28T11:02:47;3.73;;;1.77;;
19221;SDS011;9745;50.828;4.378;2023-02-28T11:10:46;2.53;;;1.70;;
19221;SDS011;9745;50.828;4.378;2023-02-28T11:13:19;4.23;;;2.10;;
19221;SDS011;9745;50.828;4.378;2023-02-28T11:15:52;6.17;;;1.97;;
19221;SDS011;9745;50.828;4.378;2023-02-28T11:18:20;5.87;;;2.00;;
19221;SDS011;9745;50.828;4.378;2023-02-28T11:20:48;4.03;;;2.70;;
19221;SDS011;9745;50.828;4.378;2023-02-28T11:23:14;2.27;;;2.00;;
19221;SDS011;9745;50.828;4.378;2023-02-28T11:25:45;5.03;;;1.97;;
19221;SDS011;9745;50.828;4.378;2023-02-28T11:28:23;3.10;;;2.10;;
19221;SDS011;9745;50.828;4.378;2023-02-28T11:30:59;3.27;;;2.00;;
19221;SDS011;9745;50.828;4.378;2023-02-28T11:33:27;4.17;;;1.87;;
19221;SDS011;9745;50.828;4.378;2023-02-28T11:35:55;2.97;;;2.03;;
19221;SDS011;9745;50.828;4.378;2023-02-28T11:38:24;4.17;;;2.77;;
19221;SDS011;9745;50.828;4.378;2023-02-28T11:43:20;3.63;;;2.50;;
19221;SDS011;9745;50.828;4.378;2023-02-28T11:45:59;3.57;;;1.83;;
19221;SDS011;9745;50.828;4.378;2023-02-28T11:53:51;6.70;;;2.73;;
19221;SDS011;9745;50.828;4.378;2023-02-28T12:17:16;3.27;;;2.20;;
19221;SDS011;9745;50.828;4.378;2023-02-28T12:22:30;3.87;;;2.50;;
19221;SDS011;9745;50.828;4.378;2023-02-28T12:27:26;4.27;;;2.17;;
19221;SDS011;9745;50.828;4.378;2023-02-28T12:29:55;2.30;;;2.00;;
19221;SDS011;9745;50.828;4.378;2023-02-28T12:32:26;3.43;;;2.33;;
19221;SDS011;9745;50.828;4.378;2023-02-28T12:35:36;2.50;;;1.80;;
19221;SDS011;9745;50.828;4.378;2023-02-28T12:37:56;8.60;;;2.17;;
19221;SDS011;9745;50.828;4.378;2023-02-28T12:40:23;7.70;;;2.17;;
19221;SDS011;9745;50.828;4.378;2023-02-28T12:42:52;5.50;;;2.10;;
19221;SDS011;9745;50.828;4.378;2023-02-28T12:45:20;3.33;;;2.30;;
19221;SDS011;9745;50.828;4.378;2023-02-28T12:47:50;6.30;;;2.40;;
19221;SDS011;9745;50.828;4.378;2023-02-28T12:50:16;5.87;;;1.93;;
19221;SDS011;9745;50.828;4.378;2023-02-28T12:55:23;4.63;;;2.73;;
19221;SDS011;9745;50.828;4.378;2023-02-28T13:00:36;4.13;;;2.10;;
19221;SDS011;9745;50.828;4.378;2023-02-28T13:08:38;3.03;;;2.10;;
19221;SDS011;9745;50.828;4.378;2023-02-28T13:11:22;3.93;;;2.10;;
19221;SDS011;9745;50.828;4.378;2023-02-28T13:13:48;6.27;;;2.27;;
19221;SDS011;9745;50.828;4.378;2023-02-28T13:16:22;7.10;;;2.70;;
19221;SDS011;9745;50.828;4.378;2023-02-28T13:18:48;2.90;;;2.20;;
19221;SDS011;9745;50.828;4.378;2023-02-28T13:21:32;5.83;;;2.43;;
19221;SDS011;9745;50.828;4.378;2023-02-28T13:24:03;2.60;;;1.87;;
19221;SDS011;9745;50.828;4.378;2023-02-28T13:29:00;5.37;;;2.13;;
19221;SDS011;9745;50.828;4.378;2023-02-28T13:31:29;5.00;;;2.40;;
19221;SDS011;9745;50.828;4.378;2023-02-28T13:36:31;5.73;;;2.13;;
19221;SDS011;9745;50.828;4.378;2023-02-28T13:38:58;3.20;;;2.10;;
19221;SDS011;9745;50.828;4.378;2023-02-28T13:46:30;3.07;;;2.30;;
19221;SDS011;9745;50.828;4.378;2023-02-28T13:49:17;3.27;;;2.30;;
19221;SDS011;9745;50.828;4.378;2023-02-28T13:51:44;2.73;;;1.97;;
19221;SDS011;9745;50.828;4.378;2023-02-28T13:56:45;4.47;;;2.40;;
19221;SDS011;9745;50.828;4.378;2023-02-28T14:01:56;2.83;;;2.03;;
19221;SDS011;9745;50.828;4.378;2023-02-28T14:06:54;6.17;;;2.37;;
19221;SDS011;9745;50.828;4.378;2023-02-28T14:11:50;5.37;;;2.27;;
19221;SDS011;9745;50.828;4.378;2023-02-28T14:17:04;4.43;;;2.90;;
19221;SDS011;9745;50.828;4.378;2023-02-28T14:19:31;4.97;;;2.73;;
19221;SDS011;9745;50.828;4.378;2023-02-28T14:24:42;9.47;;;2.37;;
19221;SDS011;9745;50.828;4.378;2023-02-28T14:35:16;5.67;;;2.40;;
19221;SDS011;9745;50.828;4.378;2023-02-28T14:37:43;3.10;;;2.10;;
19221;SDS011;9745;50.828;4.378;2023-02-28T14:40:17;6.50;;;2.47;;
19221;SDS011;9745;50.828;4.378;2023-02-28T14:42:48;3.33;;;2.60;;
19221;SDS011;9745;50.828;4.378;2023-02-28T14:45:20;3.90;;;2.47;;
19221;SDS011;9745;50.828;4.378;2023-02-28T14:47:47;3.17;;;2.07;;
19221;SDS011;9745;50.828;4.378;2023-02-28T14:50:18;2.83;;;2.13;;
19221;SDS011;9745;50.828;4.378;2023-02-28T14:52:44;4.07;;;2.60;;
19221;SDS011;9745;50.828;4.378;2023-02-28T14:55:15;3.60;;;2.17;;
19221;SDS011;9745;50.828;4.378;2023-02-28T14:57:53;8.40;;;2.40;;
19221;SDS011;9745;50.828;4.378;2023-02-28T15:00:26;4.00;;;2.30;;
19221;SDS011;9745;50.828;4.378;2023-02-28T15:02:53;3.07;;;2.50;;
19221;SDS011;9745;50.828;4.378;2023-02-28T15:05:22;4.67;;;2.90;;
19221;SDS011;9745;50.828;4.378;2023-02-28T15:07:49;3.37;;;2.70;;
19221;SDS011;9745;50.828;4.378;2023-02-28T15:10:26;4.60;;;2.47;;
19221;SDS011;9745;50.828;4.378;2023-02-28T15:12:53;5.47;;;2.20;;
19221;SDS011;9745;50.828;4.378;2023-02-28T15:15:21;5.00;;;2.20;;
19221;SDS011;9745;50.828;4.378;2023-02-28T15:17:51;4.03;;;2.57;;
19221;SDS011;9745;50.828;4.378;2023-02-28T15:20:18;3.40;;;2.53;;
19221;SDS011;9745;50.828;4.378;2023-02-28T15:22:44;8.33;;;3.60;;
19221;SDS011;9745;50.828;4.378;2023-02-28T15:25:13;2.80;;;2.43;;
19221;SDS011;9745;50.828;4.378;2023-02-28T15:27:45;5.63;;;2.83;;
19221;SDS011;9745;50.828;4.378;2023-02-28T15:30:15;4.83;;;2.97;;
19221;SDS011;9745;50.828;4.378;2023-02-28T15:32:42;9.20;;;2.83;;
19221;SDS011;9745;50.828;4.378;2023-02-28T15:37:47;7.87;;;2.70;;
19221;SDS011;9745;50.828;4.378;2023-02-28T15:40:15;6.27;;;2.63;;
19221;SDS011;9745;50.828;4.378;2023-02-28T15:42:42;4.90;;;3.00;;
19221;SDS011;9745;50.828;4.378;2023-02-28T15:45:27;4.43;;;2.37;;
19221;SDS011;9745;50.828;4.378;2023-02-28T15:47:54;5.23;;;2.70;;
19221;SDS011;9745;50.828;4.378;2023-02-28T15:50:20;6.90;;;3.30;;
19221;SDS011;9745;50.828;4.378;2023-02-28T15:52:45;5.47;;;3.03;;
19221;SDS011;9745;50.828;4.378;2023-02-28T15:55:22;4.47;;;2.90;;
19221;SDS011;9745;50.828;4.378;2023-02-28T15:57:50;3.20;;;2.77;;
19221;SDS011;9745;50.828;4.378;2023-02-28T16:00:19;5.33;;;2.63;;
19221;SDS011;9745;50.828;4.378;2023-02-28T16:02:45;3.83;;;2.30;;
19221;SDS011;9745;50.828;4.378;2023-02-28T16:05:18;3.20;;;2.60;;
19221;SDS011;9745;50.828;4.378;2023-02-28T16:07:45;3.83;;;2.60;;
19221;SDS011;9745;50.828;4.378;2023-02-28T16:10:13;3.73;;;2.47;;
19221;SDS011;9745;50.828;4.378;2023-02-28T16:12:39;5.53;;;2.90;;
19221;SDS011;9745;50.828;4.378;2023-02-28T16:15:06;3.57;;;2.80;;
19221;SDS011;9745;50.828;4.378;2023-02-28T16:17:34;2.83;;;2.53;;
19221;SDS011;9745;50.828;4.378;2023-02-28T16:20:00;5.37;;;2.70;;
19221;SDS011;9745;50.828;4.378;2023-02-28T16:22:28;2.97;;;2.37;;
19221;SDS011;9745;50.828;4.378;2023-02-28T16:24:54;4.53;;;3.03;;
19221;SDS011;9745;50.828;4.378;2023-02-28T16:27:26;2.97;;;2.30;;
19221;SDS011;9745;50.828;4.378;2023-02-28T16:29:53;3.20;;;2.90;;
19221;SDS011;9745;50.828;4.378;2023-02-28T16:32:19;4.37;;;2.70;;
19221;SDS011;9745;50.828;4.378;2023-02-28T16:34:45;3.93;;;2.90;;
19221;SDS011;9745;50.828;4.378;2023-02-28T16:37:16;4.23;;;2.73;;
19221;SDS011;9745;50.828;4.378;2023-02-28T16:39:44;3.90;;;2.70;;
19221;SDS011;9745;50.828;4.378;2023-02-28T16:42:14;3.27;;;2.73;;
19221;SDS011;9745;50.828;4.378;2023-02-28T16:44:41;4.30;;;2.90;;
19221;SDS011;9745;50.828;4.378;2023-02-28T16:47:08;5.43;;;2.60;;
19221;SDS011;9745;50.828;4.378;2023-02-28T16:49:35;4.77;;;2.83;;
19221;SDS011;9745;50.828;4.378;2023-02-28T16:52:01;5.27;;;2.57;;
19221;SDS011;9745;50.828;4.378;2023-02-28T16:54:27;4.67;;;3.03;;
19221;SDS011;9745;50.828;4.378;2023-02-28T16:56:53;4.93;;;2.83;;
19221;SDS011;9745;50.828;4.378;2023-02-28T16:59:22;4.13;;;2.50;;
19221;SDS011;9745;50.828;4.378;2023-02-28T17:01:49;3.63;;;2.70;;
19221;SDS011;9745;50.828;4.378;2023-02-28T17:04:16;6.20;;;3.00;;